Chesilhurst, New Jersey
Current Conditions -  °F | °C
As of 10:54 PM on Wednesday 28 Jan 2015 (Local Time) from KVAY Reporting Station
Clear Clear  
Wind Chill: 18°   Ceiling: Unl
Heat Index: 25°   Visibility: 10mi
Dew Point:   Wind: 6mph
Humidity: 39%   Direction: 310°NW
Pressure: 30.29"   Gusts: NA
Location:  39.719°N, 74.8185°W
Report Text: KVAY 290354Z AUTO 31005KT 10SM CLR M04/M16 A3029 RMK AO2 SLP258 T10391161
Loading
Personal Weather Stations






























Interactive Weather Map New forecast layout! Learn more

10-Day Weather Forecast

Advertisements
Track Severe Weather on mobile